sensor_id;sensor_type;location;lat;lon;timestamp;temperature;humidity
2657;DHT22;1338;48.176;11.792;2023-04-03T00:01:13;2.80;1.00
2657;DHT22;1338;48.176;11.792;2023-04-03T00:03:42;2.50;1.00
2657;DHT22;1338;48.176;11.792;2023-04-03T00:06:10;2.60;1.00
2657;DHT22;1338;48.176;11.792;2023-04-03T00:08:39;2.90;1.00
2657;DHT22;1338;48.176;11.792;2023-04-03T00:11:09;2.90;1.00
2657;DHT22;1338;48.176;11.792;2023-04-03T00:13:38;3.00;1.00
2657;DHT22;1338;48.176;11.792;2023-04-03T00:16:08;2.90;1.00
2657;DHT22;1338;48.176;11.792;2023-04-03T00:18:37;3.00;1.00
2657;DHT22;1338;48.176;11.792;2023-04-03T00:21:06;3.10;1.00
2657;DHT22;1338;48.176;11.792;2023-04-03T00:23:35;2.70;1.00
2657;DHT22;1338;48.176;11.792;2023-04-03T00:26:03;2.60;1.00
2657;DHT22;1338;48.176;11.792;2023-04-03T00:28:31;2.60;1.00
2657;DHT22;1338;48.176;11.792;2023-04-03T00:30:59;2.80;1.00
2657;DHT22;1338;48.176;11.792;2023-04-03T00:33:29;2.50;1.00
2657;DHT22;1338;48.176;11.792;2023-04-03T00:35:57;2.70;1.00
2657;DHT22;1338;48.176;11.792;2023-04-03T00:38:25;2.20;1.00
2657;DHT22;1338;48.176;11.792;2023-04-03T00:40:53;2.50;1.00
2657;DHT22;1338;48.176;11.792;2023-04-03T00:43:23;2.70;1.00
2657;DHT22;1338;48.176;11.792;2023-04-03T00:45:52;2.50;1.00
2657;DHT22;1338;48.176;11.792;2023-04-03T00:48:22;2.60;1.00
2657;DHT22;1338;48.176;11.792;2023-04-03T00:50:52;2.60;1.00
2657;DHT22;1338;48.176;11.792;2023-04-03T00:53:23;2.40;1.00
2657;DHT22;1338;48.176;11.792;2023-04-03T00:55:54;2.40;1.00
2657;DHT22;1338;48.176;11.792;2023-04-03T00:58:28;2.40;1.00
2657;DHT22;1338;48.176;11.792;2023-04-03T01:01:05;2.50;1.00
2657;DHT22;1338;48.176;11.792;2023-04-03T01:03:35;2.20;1.00
2657;DHT22;1338;48.176;11.792;2023-04-03T01:06:06;2.30;1.00
2657;DHT22;1338;48.176;11.792;2023-04-03T01:08:35;2.40;1.00
2657;DHT22;1338;48.176;11.792;2023-04-03T01:11:03;2.30;1.00
2657;DHT22;1338;48.176;11.792;2023-04-03T01:13:33;2.40;1.00
2657;DHT22;1338;48.176;11.792;2023-04-03T01:16:06;2.40;1.00
2657;DHT22;1338;48.176;11.792;2023-04-03T01:18:36;2.30;1.00
2657;DHT22;1338;48.176;11.792;2023-04-03T01:21:36;2.20;1.00
2657;DHT22;1338;48.176;11.792;2023-04-03T01:24:21;2.00;1.00
2657;DHT22;1338;48.176;11.792;2023-04-03T01:26:53;2.00;1.00
2657;DHT22;1338;48.176;11.792;2023-04-03T01:29:22;2.10;1.00
2657;DHT22;1338;48.176;11.792;2023-04-03T01:31:53;2.40;1.00
2657;DHT22;1338;48.176;11.792;2023-04-03T01:34:22;2.30;1.00
2657;DHT22;1338;48.176;11.792;2023-04-03T01:36:51;2.10;1.00
2657;DHT22;1338;48.176;11.792;2023-04-03T01:39:20;2.00;1.00
2657;DHT22;1338;48.176;11.792;2023-04-03T01:41:49;2.40;1.00
2657;DHT22;1338;48.176;11.792;2023-04-03T01:44:24;2.60;1.00
2657;DHT22;1338;48.176;11.792;2023-04-03T01:46:54;2.40;1.00
2657;DHT22;1338;48.176;11.792;2023-04-03T01:49:23;2.10;1.00
2657;DHT22;1338;48.176;11.792;2023-04-03T01:51:51;2.10;1.00
2657;DHT22;1338;48.176;11.792;2023-04-03T01:54:19;2.00;1.00
2657;DHT22;1338;48.176;11.792;2023-04-03T01:56:48;2.00;1.00
2657;DHT22;1338;48.176;11.792;2023-04-03T01:59:17;2.10;1.00
2657;DHT22;1338;48.176;11.792;2023-04-03T02:01:46;2.30;1.00
2657;DHT22;1338;48.176;11.792;2023-04-03T02:04:15;2.70;1.00
2657;DHT22;1338;48.176;11.792;2023-04-03T02:06:43;2.80;1.00
2657;DHT22;1338;48.176;11.792;2023-04-03T02:09:12;2.50;1.00
2657;DHT22;1338;48.176;11.792;2023-04-03T02:11:40;2.30;1.00
2657;DHT22;1338;48.176;11.792;2023-04-03T02:14:09;2.10;1.00
2657;DHT22;1338;48.176;11.792;2023-04-03T02:16:37;2.10;1.00
2657;DHT22;1338;48.176;11.792;2023-04-03T02:19:05;2.20;1.00
2657;DHT22;1338;48.176;11.792;2023-04-03T02:21:35;2.10;1.00
2657;DHT22;1338;48.176;11.792;2023-04-03T02:24:03;2.30;1.00
2657;DHT22;1338;48.176;11.792;2023-04-03T02:26:32;2.20;1.00
2657;DHT22;1338;48.176;11.792;2023-04-03T02:29:00;2.30;1.00
2657;DHT22;1338;48.176;11.792;2023-04-03T02:31:28;2.30;1.00
2657;DHT22;1338;48.176;11.792;2023-04-03T02:33:57;2.20;1.00
2657;DHT22;1338;48.176;11.792;2023-04-03T02:36:25;2.40;1.00
2657;DHT22;1338;48.176;11.792;2023-04-03T02:38:59;2.20;1.00
2657;DHT22;1338;48.176;11.792;2023-04-03T02:41:27;2.30;1.00
2657;DHT22;1338;48.176;11.792;2023-04-03T02:44:05;2.70;1.00
2657;DHT22;1338;48.176;11.792;2023-04-03T02:46:33;2.60;1.00
2657;DHT22;1338;48.176;11.792;2023-04-03T02:49:02;2.40;1.00
2657;DHT22;1338;48.176;11.792;2023-04-03T02:51:31;2.60;1.00
2657;DHT22;1338;48.176;11.792;2023-04-03T02:54:00;2.70;1.00
2657;DHT22;1338;48.176;11.792;2023-04-03T02:56:32;2.70;1.00
2657;DHT22;1338;48.176;11.792;2023-04-03T02:59:00;2.60;1.00
2657;DHT22;1338;48.176;11.792;2023-04-03T03:01:29;2.80;1.00
2657;DHT22;1338;48.176;11.792;2023-04-03T03:03:59;2.70;1.00
2657;DHT22;1338;48.176;11.792;2023-04-03T03:06:28;2.90;1.00
2657;DHT22;1338;48.176;11.792;2023-04-03T03:08:56;2.60;1.00
2657;DHT22;1338;48.176;11.792;2023-04-03T03:11:25;2.40;1.00
2657;DHT22;1338;48.176;11.792;2023-04-03T03:13:53;2.40;1.00
2657;DHT22;1338;48.176;11.792;2023-04-03T03:16:24;2.50;1.00
2657;DHT22;1338;48.176;11.792;2023-04-03T03:18:52;2.90;1.00
2657;DHT22;1338;48.176;11.792;2023-04-03T03:21:22;3.00;1.00
2657;DHT22;1338;48.176;11.792;2023-04-03T03:23:50;3.00;1.00
2657;DHT22;1338;48.176;11.792;2023-04-03T03:26:18;2.90;1.00
2657;DHT22;1338;48.176;11.792;2023-04-03T03:28:47;2.50;1.00
2657;DHT22;1338;48.176;11.792;2023-04-03T03:31:16;2.70;1.00
2657;DHT22;1338;48.176;11.792;2023-04-03T03:33:44;2.60;1.00
2657;DHT22;1338;48.176;11.792;2023-04-03T03:36:12;2.80;1.00
2657;DHT22;1338;48.176;11.792;2023-04-03T03:38:40;2.70;1.00
2657;DHT22;1338;48.176;11.792;2023-04-03T03:41:09;2.30;1.00
2657;DHT22;1338;48.176;11.792;2023-04-03T03:43:38;2.40;1.00
2657;DHT22;1338;48.176;11.792;2023-04-03T03:46:08;2.40;1.00
2657;DHT22;1338;48.176;11.792;2023-04-03T03:48:36;2.30;1.00
2657;DHT22;1338;48.176;11.792;2023-04-03T03:51:05;2.20;1.00
2657;DHT22;1338;48.176;11.792;2023-04-03T03:53:36;2.30;1.00
2657;DHT22;1338;48.176;11.792;2023-04-03T03:56:07;2.10;1.00
2657;DHT22;1338;48.176;11.792;2023-04-03T03:58:38;2.00;1.00
2657;DHT22;1338;48.176;11.792;2023-04-03T04:01:08;2.10;1.00
2657;DHT22;1338;48.176;11.792;2023-04-03T04:03:42;2.30;1.00
2657;DHT22;1338;48.176;11.792;2023-04-03T04:06:13;2.20;1.00
2657;DHT22;1338;48.176;11.792;2023-04-03T04:08:41;2.40;1.00
2657;DHT22;1338;48.176;11.792;2023-04-03T04:11:11;2.10;1.00
2657;DHT22;1338;48.176;11.792;2023-04-03T04:13:40;2.10;1.00
2657;DHT22;1338;48.176;11.792;2023-04-03T04:16:12;2.20;1.00
2657;DHT22;1338;48.176;11.792;2023-04-03T04:18:40;2.10;1.00
2657;DHT22;1338;48.176;11.792;2023-04-03T04:21:09;2.20;1.00
2657;DHT22;1338;48.176;11.792;2023-04-03T04:23:38;2.50;1.00
2657;DHT22;1338;48.176;11.792;2023-04-03T04:26:06;2.50;1.00
2657;DHT22;1338;48.176;11.792;2023-04-03T04:28:37;2.20;1.00
2657;DHT22;1338;48.176;11.792;2023-04-03T04:31:06;2.20;1.00
2657;DHT22;1338;48.176;11.792;2023-04-03T04:33:36;2.20;1.00
2657;DHT22;1338;48.176;11.792;2023-04-03T04:36:07;2.00;1.00
2657;DHT22;1338;48.176;11.792;2023-04-03T04:38:35;2.10;1.00
2657;DHT22;1338;48.176;11.792;2023-04-03T04:41:05;2.00;1.00
2657;DHT22;1338;48.176;11.792;2023-04-03T04:43:34;2.30;1.00
2657;DHT22;1338;48.176;11.792;2023-04-03T04:46:03;2.70;1.00
2657;DHT22;1338;48.176;11.792;2023-04-03T04:48:38;2.40;1.00
2657;DHT22;1338;48.176;11.792;2023-04-03T04:51:07;2.40;1.00
2657;DHT22;1338;48.176;11.792;2023-04-03T04:53:37;2.10;1.00
2657;DHT22;1338;48.176;11.792;2023-04-03T04:56:07;1.90;1.00
2657;DHT22;1338;48.176;11.792;2023-04-03T04:58:37;2.00;1.00
2657;DHT22;1338;48.176;11.792;2023-04-03T05:01:08;2.00;1.00
2657;DHT22;1338;48.176;11.792;2023-04-03T05:03:45;1.90;1.00
2657;DHT22;1338;48.176;11.792;2023-04-03T05:06:15;2.30;1.00
2657;DHT22;1338;48.176;11.792;2023-04-03T05:08:43;2.60;1.00
2657;DHT22;1338;48.176;11.792;2023-04-03T05:11:12;2.90;1.00
2657;DHT22;1338;48.176;11.792;2023-04-03T05:13:41;2.80;1.00
2657;DHT22;1338;48.176;11.792;2023-04-03T05:16:09;2.80;1.00
2657;DHT22;1338;48.176;11.792;2023-04-03T05:18:38;2.60;1.00
2657;DHT22;1338;48.176;11.792;2023-04-03T05:21:11;2.70;1.00
2657;DHT22;1338;48.176;11.792;2023-04-03T05:23:39;2.90;1.00
2657;DHT22;1338;48.176;11.792;2023-04-03T05:26:08;2.80;1.00
2657;DHT22;1338;48.176;11.792;2023-04-03T05:28:37;2.60;1.00
2657;DHT22;1338;48.176;11.792;2023-04-03T05:31:07;2.90;1.00
2657;DHT22;1338;48.176;11.792;2023-04-03T05:33:35;2.90;1.00
2657;DHT22;1338;48.176;11.792;2023-04-03T05:36:07;2.90;1.00
2657;DHT22;1338;48.176;11.792;2023-04-03T05:38:42;3.00;1.00
2657;DHT22;1338;48.176;11.792;2023-04-03T05:41:11;2.60;1.00
2657;DHT22;1338;48.176;11.792;2023-04-03T05:43:40;2.70;1.00
2657;DHT22;1338;48.176;11.792;2023-04-03T05:46:10;2.90;1.00
2657;DHT22;1338;48.176;11.792;2023-04-03T05:48:42;3.00;1.00
2657;DHT22;1338;48.176;11.792;2023-04-03T05:51:15;2.80;1.00
2657;DHT22;1338;48.176;11.792;2023-04-03T05:53:47;2.60;1.00
2657;DHT22;1338;48.176;11.792;2023-04-03T05:56:16;2.70;1.00
2657;DHT22;1338;48.176;11.792;2023-04-03T05:58:44;2.80;1.00
2657;DHT22;1338;48.176;11.792;2023-04-03T06:01:12;3.10;1.00
2657;DHT22;1338;48.176;11.792;2023-04-03T06:03:40;3.20;1.00
2657;DHT22;1338;48.176;11.792;2023-04-03T06:06:12;3.30;1.00
2657;DHT22;1338;48.176;11.792;2023-04-03T06:08:41;2.80;1.00
2657;DHT22;1338;48.176;11.792;2023-04-03T06:11:12;2.80;1.00
2657;DHT22;1338;48.176;11.792;2023-04-03T06:13:40;3.10;1.00
2657;DHT22;1338;48.176;11.792;2023-04-03T06:16:09;2.80;1.00
2657;DHT22;1338;48.176;11.792;2023-04-03T06:18:41;2.70;1.00
2657;DHT22;1338;48.176;11.792;2023-04-03T06:21:09;3.20;1.00
2657;DHT22;1338;48.176;11.792;2023-04-03T06:23:37;3.20;1.00
2657;DHT22;1338;48.176;11.792;2023-04-03T06:26:05;3.20;1.00
2657;DHT22;1338;48.176;11.792;2023-04-03T06:28:35;3.20;99.90
2657;DHT22;1338;48.176;11.792;2023-04-03T06:31:03;3.40;99.90
2657;DHT22;1338;48.176;11.792;2023-04-03T06:33:31;3.30;99.90
2657;DHT22;1338;48.176;11.792;2023-04-03T06:36:02;3.30;99.90
2657;DHT22;1338;48.176;11.792;2023-04-03T06:38:31;3.30;99.90
2657;DHT22;1338;48.176;11.792;2023-04-03T06:40:59;3.40;99.90
2657;DHT22;1338;48.176;11.792;2023-04-03T06:43:27;3.20;99.90
2657;DHT22;1338;48.176;11.792;2023-04-03T06:45:56;3.40;99.90
2657;DHT22;1338;48.176;11.792;2023-04-03T06:48:25;3.40;99.90
2657;DHT22;1338;48.176;11.792;2023-04-03T06:50:53;3.40;99.90
2657;DHT22;1338;48.176;11.792;2023-04-03T06:53:21;3.60;99.90
2657;DHT22;1338;48.176;11.792;2023-04-03T06:55:49;3.30;99.90
2657;DHT22;1338;48.176;11.792;2023-04-03T06:58:17;3.50;99.90
2657;DHT22;1338;48.176;11.792;2023-04-03T07:00:48;3.70;99.90
2657;DHT22;1338;48.176;11.792;2023-04-03T07:03:18;3.60;99.90
2657;DHT22;1338;48.176;11.792;2023-04-03T07:05:46;3.70;99.90
2657;DHT22;1338;48.176;11.792;2023-04-03T07:08:14;3.50;99.90
2657;DHT22;1338;48.176;11.792;2023-04-03T07:10:42;3.60;99.90
2657;DHT22;1338;48.176;11.792;2023-04-03T07:13:10;3.50;99.90
2657;DHT22;1338;48.176;11.792;2023-04-03T07:15:38;3.40;99.90
2657;DHT22;1338;48.176;11.792;2023-04-03T07:18:06;3.60;99.90
2657;DHT22;1338;48.176;11.792;2023-04-03T07:20:36;3.50;99.90
2657;DHT22;1338;48.176;11.792;2023-04-03T07:23:04;3.60;99.90
2657;DHT22;1338;48.176;11.792;2023-04-03T07:25:32;3.40;99.90
2657;DHT22;1338;48.176;11.792;2023-04-03T07:28:01;3.40;99.90
2657;DHT22;1338;48.176;11.792;2023-04-03T07:30:30;3.50;99.90
2657;DHT22;1338;48.176;11.792;2023-04-03T07:32:58;3.30;99.90
2657;DHT22;1338;48.176;11.792;2023-04-03T07:35:26;3.60;99.90
2657;DHT22;1338;48.176;11.792;2023-04-03T07:37:56;3.60;99.90
2657;DHT22;1338;48.176;11.792;2023-04-03T07:40:24;3.60;99.90
2657;DHT22;1338;48.176;11.792;2023-04-03T07:42:52;3.70;99.90
2657;DHT22;1338;48.176;11.792;2023-04-03T07:45:21;3.50;99.90
2657;DHT22;1338;48.176;11.792;2023-04-03T07:47:50;3.50;99.90
2657;DHT22;1338;48.176;11.792;2023-04-03T07:50:19;3.80;99.90
2657;DHT22;1338;48.176;11.792;2023-04-03T07:52:47;3.90;99.90
2657;DHT22;1338;48.176;11.792;2023-04-03T07:55:17;3.90;99.90
2657;DHT22;1338;48.176;11.792;2023-04-03T07:57:45;3.80;99.90
2657;DHT22;1338;48.176;11.792;2023-04-03T08:00:14;3.80;99.90
2657;DHT22;1338;48.176;11.792;2023-04-03T08:02:44;3.90;99.90
2657;DHT22;1338;48.176;11.792;2023-04-03T08:05:17;3.90;99.90
2657;DHT22;1338;48.176;11.792;2023-04-03T08:07:45;3.90;99.90
2657;DHT22;1338;48.176;11.792;2023-04-03T08:10:17;4.00;99.90
2657;DHT22;1338;48.176;11.792;2023-04-03T08:12:46;3.90;99.90
2657;DHT22;1338;48.176;11.792;2023-04-03T08:15:15;3.90;99.90
2657;DHT22;1338;48.176;11.792;2023-04-03T08:17:43;4.00;99.90
2657;DHT22;1338;48.176;11.792;2023-04-03T08:20:12;4.00;99.90
2657;DHT22;1338;48.176;11.792;2023-04-03T08:22:40;4.10;99.90
2657;DHT22;1338;48.176;11.792;2023-04-03T08:25:09;4.00;99.90
2657;DHT22;1338;48.176;11.792;2023-04-03T08:27:38;4.00;99.90
2657;DHT22;1338;48.176;11.792;2023-04-03T08:30:07;4.10;99.90
2657;DHT22;1338;48.176;11.792;2023-04-03T08:32:36;4.20;99.90
2657;DHT22;1338;48.176;11.792;2023-04-03T08:35:05;4.40;99.90
2657;DHT22;1338;48.176;11.792;2023-04-03T08:37:34;4.40;99.90
2657;DHT22;1338;48.176;11.792;2023-04-03T08:40:03;4.40;99.90
2657;DHT22;1338;48.176;11.792;2023-04-03T08:42:41;4.50;99.90
2657;DHT22;1338;48.176;11.792;2023-04-03T08:45:14;4.60;99.90
2657;DHT22;1338;48.176;11.792;2023-04-03T08:47:47;4.50;99.90
2657;DHT22;1338;48.176;11.792;2023-04-03T08:50:26;4.60;99.90
2657;DHT22;1338;48.176;11.792;2023-04-03T08:52:58;4.70;99.90
2657;DHT22;1338;48.176;11.792;2023-04-03T08:55:28;4.70;99.90
2657;DHT22;1338;48.176;11.792;2023-04-03T08:58:01;4.80;99.90
2657;DHT22;1338;48.176;11.792;2023-04-03T09:00:44;4.70;99.90
2657;DHT22;1338;48.176;11.792;2023-04-03T09:03:14;4.60;99.90
2657;DHT22;1338;48.176;11.792;2023-04-03T09:05:47;4.70;99.90
2657;DHT22;1338;48.176;11.792;2023-04-03T09:08:26;4.80;99.90
2657;DHT22;1338;48.176;11.792;2023-04-03T09:11:05;4.90;99.90
2657;DHT22;1338;48.176;11.792;2023-04-03T09:13:43;4.80;99.90
2657;DHT22;1338;48.176;11.792;2023-04-03T09:16:25;4.90;99.90
2657;DHT22;1338;48.176;11.792;2023-04-03T09:19:02;5.10;99.90
2657;DHT22;1338;48.176;11.792;2023-04-03T09:21:38;5.10;99.90
2657;DHT22;1338;48.176;11.792;2023-04-03T09:24:10;5.10;99.90
2657;DHT22;1338;48.176;11.792;2023-04-03T09:26:44;5.10;99.90
2657;DHT22;1338;48.176;11.792;2023-04-03T09:29:18;5.00;99.90
2657;DHT22;1338;48.176;11.792;2023-04-03T09:31:48;5.10;99.90
2657;DHT22;1338;48.176;11.792;2023-04-03T09:34:22;5.20;99.90
2657;DHT22;1338;48.176;11.792;2023-04-03T09:36:52;4.90;99.90
2657;DHT22;1338;48.176;11.792;2023-04-03T09:39:22;4.80;99.90
2657;DHT22;1338;48.176;11.792;2023-04-03T09:41:59;4.80;99.90
2657;DHT22;1338;48.176;11.792;2023-04-03T09:44:31;4.80;99.90
2657;DHT22;1338;48.176;11.792;2023-04-03T09:47:17;4.80;99.90
2657;DHT22;1338;48.176;11.792;2023-04-03T09:49:46;4.90;99.90
2657;DHT22;1338;48.176;11.792;2023-04-03T09:52:23;5.10;99.90
2657;DHT22;1338;48.176;11.792;2023-04-03T09:54:52;5.10;99.90
2657;DHT22;1338;48.176;11.792;2023-04-03T09:57:20;5.00;99.90
2657;DHT22;1338;48.176;11.792;2023-04-03T09:59:58;5.10;99.90
2657;DHT22;1338;48.176;11.792;2023-04-03T10:02:35;5.20;99.90
2657;DHT22;1338;48.176;11.792;2023-04-03T10:05:05;5.00;99.90
2657;DHT22;1338;48.176;11.792;2023-04-03T10:08:06;4.90;99.90
2657;DHT22;1338;48.176;11.792;2023-04-03T10:10:37;4.70;99.90
2657;DHT22;1338;48.176;11.792;2023-04-03T10:13:09;4.50;99.90
2657;DHT22;1338;48.176;11.792;2023-04-03T10:15:51;4.70;99.90
2657;DHT22;1338;48.176;11.792;2023-04-03T10:18:31;4.70;99.90
2657;DHT22;1338;48.176;11.792;2023-04-03T10:21:04;4.50;99.90
2657;DHT22;1338;48.176;11.792;2023-04-03T10:23:51;4.50;99.90
2657;DHT22;1338;48.176;11.792;2023-04-03T10:26:29;4.70;99.90
2657;DHT22;1338;48.176;11.792;2023-04-03T10:29:05;4.40;99.90
2657;DHT22;1338;48.176;11.792;2023-04-03T10:31:42;4.60;99.90
2657;DHT22;1338;48.176;11.792;2023-04-03T10:34:20;4.50;99.90
2657;DHT22;1338;48.176;11.792;2023-04-03T10:36:56;4.50;99.90
2657;DHT22;1338;48.176;11.792;2023-04-03T10:39:31;4.40;99.90
2657;DHT22;1338;48.176;11.792;2023-04-03T10:42:08;4.30;99.90
2657;DHT22;1338;48.176;11.792;2023-04-03T10:44:56;4.60;99.90
2657;DHT22;1338;48.176;11.792;2023-04-03T10:47:34;4.40;99.90
2657;DHT22;1338;48.176;11.792;2023-04-03T10:50:22;4.30;99.90
2657;DHT22;1338;48.176;11.792;2023-04-03T10:52:57;4.30;99.90
2657;DHT22;1338;48.176;11.792;2023-04-03T10:55:35;4.30;99.90
2657;DHT22;1338;48.176;11.792;2023-04-03T10:58:06;4.50;99.90
2657;DHT22;1338;48.176;11.792;2023-04-03T11:00:43;4.60;99.90
2657;DHT22;1338;48.176;11.792;2023-04-03T11:03:17;4.70;99.90
2657;DHT22;1338;48.176;11.792;2023-04-03T11:05:53;4.70;99.90
2657;DHT22;1338;48.176;11.792;2023-04-03T11:08:27;4.80;99.90
2657;DHT22;1338;48.176;11.792;2023-04-03T11:11:00;4.80;99.90
2657;DHT22;1338;48.176;11.792;2023-04-03T11:13:34;4.90;99.90
2657;DHT22;1338;48.176;11.792;2023-04-03T11:16:05;4.80;99.90
2657;DHT22;1338;48.176;11.792;2023-04-03T11:18:39;5.00;99.90
2657;DHT22;1338;48.176;11.792;2023-04-03T11:21:14;5.10;99.90
2657;DHT22;1338;48.176;11.792;2023-04-03T11:23:45;5.10;99.90
2657;DHT22;1338;48.176;11.792;2023-04-03T11:26:18;5.10;99.90
2657;DHT22;1338;48.176;11.792;2023-04-03T11:28:53;5.20;99.90
2657;DHT22;1338;48.176;11.792;2023-04-03T11:31:33;5.30;99.60
2657;DHT22;1338;48.176;11.792;2023-04-03T11:34:19;5.30;94.60
2657;DHT22;1338;48.176;11.792;2023-04-03T11:36:54;5.50;90.40
2657;DHT22;1338;48.176;11.792;2023-04-03T11:39:26;5.40;73.30
2657;DHT22;1338;48.176;11.792;2023-04-03T11:42:13;5.40;70.00
2657;DHT22;1338;48.176;11.792;2023-04-03T11:44:42;5.50;57.40
2657;DHT22;1338;48.176;11.792;2023-04-03T11:47:11;5.60;50.30
2657;DHT22;1338;48.176;11.792;2023-04-03T11:49:58;5.90;35.30
2657;DHT22;1338;48.176;11.792;2023-04-03T11:52:56;5.60;16.50
2657;DHT22;1338;48.176;11.792;2023-04-03T11:55:53;5.60;11.00
2657;DHT22;1338;48.176;11.792;2023-04-03T11:58:24;5.70;5.70
2657;DHT22;1338;48.176;11.792;2023-04-03T12:00:55;5.70;1.00
2657;DHT22;1338;48.176;11.792;2023-04-03T12:06:53;5.80;1.00
2657;DHT22;1338;48.176;11.792;2023-04-03T12:09:29;5.90;1.00
2657;DHT22;1338;48.176;11.792;2023-04-03T12:11:59;6.10;1.00
2657;DHT22;1338;48.176;11.792;2023-04-03T12:14:28;6.20;1.00
2657;DHT22;1338;48.176;11.792;2023-04-03T12:16:57;6.20;1.00
2657;DHT22;1338;48.176;11.792;2023-04-03T12:19:34;6.30;1.00
2657;DHT22;1338;48.176;11.792;2023-04-03T12:22:18;6.20;1.00
2657;DHT22;1338;48.176;11.792;2023-04-03T12:24:49;6.20;1.00
2657;DHT22;1338;48.176;11.792;2023-04-03T12:27:33;6.00;1.00
2657;DHT22;1338;48.176;11.792;2023-04-03T12:30:15;6.10;1.00
2657;DHT22;1338;48.176;11.792;2023-04-03T12:33:02;6.20;1.00
2657;DHT22;1338;48.176;11.792;2023-04-03T12:35:44;6.30;1.00
2657;DHT22;1338;48.176;11.792;2023-04-03T12:38:30;6.20;1.00
2657;DHT22;1338;48.176;11.792;2023-04-03T12:41:21;6.10;1.00
2657;DHT22;1338;48.176;11.792;2023-04-03T12:44:01;6.30;1.00
2657;DHT22;1338;48.176;11.792;2023-04-03T12:46:37;6.60;1.00
2657;DHT22;1338;48.176;11.792;2023-04-03T12:49:20;6.70;1.00
2657;DHT22;1338;48.176;11.792;2023-04-03T12:51:51;6.80;1.00
2657;DHT22;1338;48.176;11.792;2023-04-03T12:54:23;7.30;1.00
2657;DHT22;1338;48.176;11.792;2023-04-03T12:57:09;8.00;1.00
2657;DHT22;1338;48.176;11.792;2023-04-03T12:59:37;8.90;1.00
2657;DHT22;1338;48.176;11.792;2023-04-03T13:02:23;9.10;1.00
2657;DHT22;1338;48.176;11.792;2023-04-03T13:04:54;8.70;1.00
2657;DHT22;1338;48.176;11.792;2023-04-03T13:07:28;8.20;1.00
2657;DHT22;1338;48.176;11.792;2023-04-03T13:10:03;7.90;1.00
2657;DHT22;1338;48.176;11.792;2023-04-03T13:12:32;8.00;1.00
2657;DHT22;1338;48.176;11.792;2023-04-03T13:15:11;9.00;1.00
2657;DHT22;1338;48.176;11.792;2023-04-03T13:17:41;8.70;1.00
2657;DHT22;1338;48.176;11.792;2023-04-03T13:20:12;7.60;1.00
2657;DHT22;1338;48.176;11.792;2023-04-03T13:22:50;7.40;1.00
2657;DHT22;1338;48.176;11.792;2023-04-03T13:25:23;7.20;1.00
2657;DHT22;1338;48.176;11.792;2023-04-03T13:27:52;7.30;1.00
2657;DHT22;1338;48.176;11.792;2023-04-03T13:30:39;6.90;1.00
2657;DHT22;1338;48.176;11.792;2023-04-03T13:33:22;6.70;1.00
2657;DHT22;1338;48.176;11.792;2023-04-03T13:35:55;6.80;1.00
2657;DHT22;1338;48.176;11.792;2023-04-03T13:38:26;6.80;1.00
2657;DHT22;1338;48.176;11.792;2023-04-03T13:40:59;6.80;1.00
2657;DHT22;1338;48.176;11.792;2023-04-03T13:43:31;6.90;1.00
2657;DHT22;1338;48.176;11.792;2023-04-03T13:46:03;7.60;1.00
2657;DHT22;1338;48.176;11.792;2023-04-03T13:48:38;7.30;1.00
2657;DHT22;1338;48.176;11.792;2023-04-03T13:51:19;7.40;1.00
2657;DHT22;1338;48.176;11.792;2023-04-03T13:53:51;7.20;1.00
2657;DHT22;1338;48.176;11.792;2023-04-03T13:56:26;7.00;1.00
2657;DHT22;1338;48.176;11.792;2023-04-03T13:58:58;7.10;1.00
2657;DHT22;1338;48.176;11.792;2023-04-03T14:01:34;7.00;1.00
2657;DHT22;1338;48.176;11.792;2023-04-03T14:04:14;7.30;1.00
2657;DHT22;1338;48.176;11.792;2023-04-03T14:06:45;7.80;1.00
2657;DHT22;1338;48.176;11.792;2023-04-03T14:09:14;8.20;1.00
2657;DHT22;1338;48.176;11.792;2023-04-03T14:11:45;7.90;1.00
2657;DHT22;1338;48.176;11.792;2023-04-03T14:14:16;7.90;1.00
2657;DHT22;1338;48.176;11.792;2023-04-03T14:16:47;8.10;1.00
2657;DHT22;1338;48.176;11.792;2023-04-03T14:19:20;8.60;1.00
2657;DHT22;1338;48.176;11.792;2023-04-03T14:21:49;9.10;1.00
2657;DHT22;1338;48.176;11.792;2023-04-03T14:24:19;9.20;1.00
2657;DHT22;1338;48.176;11.792;2023-04-03T14:26:51;9.10;1.00
2657;DHT22;1338;48.176;11.792;2023-04-03T14:29:20;9.60;1.00
2657;DHT22;1338;48.176;11.792;2023-04-03T14:31:50;9.00;1.00
2657;DHT22;1338;48.176;11.792;2023-04-03T14:34:37;9.80;1.00
2657;DHT22;1338;48.176;11.792;2023-04-03T14:37:08;9.70;1.00
2657;DHT22;1338;48.176;11.792;2023-04-03T14:39:37;10.00;1.00
2657;DHT22;1338;48.176;11.792;2023-04-03T14:42:13;10.60;1.00
2657;DHT22;1338;48.176;11.792;2023-04-03T14:44:41;10.10;1.00
2657;DHT22;1338;48.176;11.792;2023-04-03T14:47:14;8.90;1.00
2657;DHT22;1338;48.176;11.792;2023-04-03T14:49:57;9.60;1.00
2657;DHT22;1338;48.176;11.792;2023-04-03T14:52:29;9.40;1.00
2657;DHT22;1338;48.176;11.792;2023-04-03T14:54:58;8.30;1.00
2657;DHT22;1338;48.176;11.792;2023-04-03T14:57:29;8.50;1.00
2657;DHT22;1338;48.176;11.792;2023-04-03T14:59:58;8.30;1.00
2657;DHT22;1338;48.176;11.792;2023-04-03T15:02:29;8.80;1.00
2657;DHT22;1338;48.176;11.792;2023-04-03T15:05:00;9.70;1.00
2657;DHT22;1338;48.176;11.792;2023-04-03T15:07:33;10.10;1.00
2657;DHT22;1338;48.176;11.792;2023-04-03T15:10:09;9.90;1.00
2657;DHT22;1338;48.176;11.792;2023-04-03T15:12:43;8.90;1.00
2657;DHT22;1338;48.176;11.792;2023-04-03T15:15:12;9.20;1.00
2657;DHT22;1338;48.176;11.792;2023-04-03T15:17:41;9.80;1.00
2657;DHT22;1338;48.176;11.792;2023-04-03T15:20:14;10.30;1.00
2657;DHT22;1338;48.176;11.792;2023-04-03T15:22:42;10.60;1.00
2657;DHT22;1338;48.176;11.792;2023-04-03T15:25:11;9.70;1.00
2657;DHT22;1338;48.176;11.792;2023-04-03T15:27:42;10.50;1.00
2657;DHT22;1338;48.176;11.792;2023-04-03T15:30:15;10.10;1.00
2657;DHT22;1338;48.176;11.792;2023-04-03T15:32:43;10.60;1.00
2657;DHT22;1338;48.176;11.792;2023-04-03T15:35:12;11.00;1.00
2657;DHT22;1338;48.176;11.792;2023-04-03T15:37:40;10.20;1.00
2657;DHT22;1338;48.176;11.792;2023-04-03T15:40:10;10.50;1.00
2657;DHT22;1338;48.176;11.792;2023-04-03T15:42:39;10.60;1.00
2657;DHT22;1338;48.176;11.792;2023-04-03T15:45:09;10.30;1.00
2657;DHT22;1338;48.176;11.792;2023-04-03T15:47:38;10.00;1.00
2657;DHT22;1338;48.176;11.792;2023-04-03T15:50:07;9.00;1.00
2657;DHT22;1338;48.176;11.792;2023-04-03T15:52:36;9.50;1.00
2657;DHT22;1338;48.176;11.792;2023-04-03T15:55:05;9.50;1.00
2657;DHT22;1338;48.176;11.792;2023-04-03T15:57:34;8.70;1.00
2657;DHT22;1338;48.176;11.792;2023-04-03T16:00:03;9.50;1.00
2657;DHT22;1338;48.176;11.792;2023-04-03T16:02:34;9.80;1.00
2657;DHT22;1338;48.176;11.792;2023-04-03T16:05:02;9.60;1.00
2657;DHT22;1338;48.176;11.792;2023-04-03T16:07:31;8.70;1.00
2657;DHT22;1338;48.176;11.792;2023-04-03T16:09:59;8.60;1.00
2657;DHT22;1338;48.176;11.792;2023-04-03T16:12:27;8.30;1.00
2657;DHT22;1338;48.176;11.792;2023-04-03T16:14:56;8.60;1.00
2657;DHT22;1338;48.176;11.792;2023-04-03T16:17:24;9.40;1.00
2657;DHT22;1338;48.176;11.792;2023-04-03T16:19:55;9.10;1.00
2657;DHT22;1338;48.176;11.792;2023-04-03T16:22:24;9.40;1.00
2657;DHT22;1338;48.176;11.792;2023-04-03T16:24:53;9.40;1.00
2657;DHT22;1338;48.176;11.792;2023-04-03T16:27:22;9.40;1.00
2657;DHT22;1338;48.176;11.792;2023-04-03T16:29:54;9.50;1.00
2657;DHT22;1338;48.176;11.792;2023-04-03T16:32:23;9.70;1.00
2657;DHT22;1338;48.176;11.792;2023-04-03T16:34:52;9.40;1.00
2657;DHT22;1338;48.176;11.792;2023-04-03T16:37:21;9.30;1.00
2657;DHT22;1338;48.176;11.792;2023-04-03T16:39:52;9.40;1.00
2657;DHT22;1338;48.176;11.792;2023-04-03T16:42:20;9.00;1.00
2657;DHT22;1338;48.176;11.792;2023-04-03T16:44:49;8.90;1.00